Time;durP1;ratioP1;P1;durP2;ratioP2;P2;SDS_P1;SDS_P2;PMS_P1;PMS_P2;Temp;Humidity;BMP_temperature;BMP_pressure;BME280_temperature;BME280_humidity;BME280_pressure;Samples;Min_cycle;Max_cycle;Signal;HPM_P1;HPM_P2
2021/03/21 00:00:59;;;;;;;;;;;;;;;1.72;71.39;100758.92;1711757;84;20292;-55
2021/03/21 00:04:04;;;;;;;;;;;;;;;1.72;71.33;100750.83;1711690;84;20276;-55
2021/03/21 00:07:09;;;;;;;;;;;;;;;1.74;71.35;100748.89;1711774;84;20228;-55
2021/03/21 00:10:13;;;;;;;;;;;;;;;1.73;71.30;100753.93;1711696;84;20734;-54
2021/03/21 00:13:16;;;;;;;;;;;;;;;1.72;71.30;100751.70;1711153;84;20211;-55
2021/03/21 00:16:19;;;;;;;;;;;;;;;1.76;71.40;100748.30;1710677;84;20595;-55
2021/03/21 00:19:24;;;;;;;;;;;;;;;1.77;71.35;100742.80;1710712;84;20619;-55
2021/03/21 00:22:28;;;;;;;;;;;;;;;1.83;71.24;100748.22;1710696;84;20288;-55
2021/03/21 00:25:33;;;;;;;;;;;;;;;1.87;71.20;100749.73;1710739;84;20309;-54
2021/03/21 00:28:38;;;;;;;;;;;;;;;1.91;71.10;100739.08;1711128;84;20303;-54
2021/03/21 00:31:44;;;;;;;;;;;;;;;1.96;70.92;100738.25;1711471;82;20220;-55
2021/03/21 00:34:48;;;;;;;;;;;;;;;1.94;70.73;100733.45;1711176;84;20569;-55
2021/03/21 00:37:53;;;;;;;;;;;;;;;1.95;70.74;100731.14;1710881;84;20216;-54
2021/03/21 00:40:56;;;;;;;;;;;;;;;1.99;70.75;100736.67;1710703;84;20283;-55
2021/03/21 00:44:01;;;;;;;;;;;;;;;2.01;70.64;100735.61;1711065;84;20204;-54
2021/03/21 00:47:04;;;;;;;;;;;;;;;2.04;70.65;100731.80;1711239;84;20216;-55
2021/03/21 00:50:11;;;;;;;;;;;;;;;2.07;70.73;100732.92;1712880;82;20589;-54
2021/03/21 00:53:15;;;;;;;;;;;;;;;2.10;70.68;100729.52;1713887;83;20574;-55
2021/03/21 00:56:39;;;;;;;;;;;;;;;2.12;70.72;100726.22;1714159;83;20590;-55
2021/03/21 00:59:43;;;;;;;;;;;;;;;2.13;70.68;100721.66;1714227;83;20284;-55
2021/03/21 01:02:48;;;;;;;;;;;;;;;2.14;70.61;100718.84;1714259;83;20210;-56
2021/03/21 01:05:55;;;;;;;;;;;;;;;2.11;70.47;100729.88;1713985;83;20286;-56
2021/03/21 01:09:08;;;;;;;;;;;;;;;2.10;70.51;100723.24;1714115;83;20254;-54
2021/03/21 01:12:13;;;;;;;;;;;;;;;2.12;70.66;100719.47;1713906;83;20214;-53
2021/03/21 01:15:20;;;;;;;;;;;;;;;2.17;70.70;100723.17;1713884;83;20218;-54
2021/03/21 01:18:26;;;;;;;;;;;;;;;2.22;70.67;100720.48;1714213;83;20614;-54
2021/03/21 01:21:33;;;;;;;;;;;;;;;2.28;70.60;100713.78;1713887;83;20296;-55
2021/03/21 01:24:39;;;;;;;;;;;;;;;2.33;70.50;100712.95;1713713;83;20297;-55
2021/03/21 01:27:42;;;;;;;;;;;;;;;2.40;70.44;100712.84;1713742;83;20277;-55
2021/03/21 01:30:45;;;;;;;;;;;;;;;2.42;70.08;100705.02;1713805;83;20708;-55
2021/03/21 01:33:49;;;;;;;;;;;;;;;2.41;69.76;100702.42;1713705;83;20297;-54
2021/03/21 01:36:53;;;;;;;;;;;;;;;2.38;69.88;100700.80;1714303;83;20206;-55
2021/03/21 01:39:57;;;;;;;;;;;;;;;2.41;70.07;100703.27;1714503;83;20720;-55
2021/03/21 01:43:01;;;;;;;;;;;;;;;2.41;69.92;100698.37;1714356;83;20289;-55
2021/03/21 01:46:06;;;;;;;;;;;;;;;2.39;69.73;100697.14;1714285;83;20296;-54
2021/03/21 01:49:20;;;;;;;;;;;;;;;2.39;69.88;100690.39;1714165;83;20337;-53
2021/03/21 01:52:39;;;;;;;;;;;;;;;2.46;70.09;100691.63;1737492;80;20266;-55
2021/03/21 01:55:45;;;;;;;;;;;;;;;2.54;69.83;100684.27;1679165;85;20215;-55
2021/03/21 01:58:51;;;;;;;;;;;;;;;2.64;69.80;100689.35;1709162;83;20236;-55
2021/03/21 02:01:56;;;;;;;;;;;;;;;2.73;69.60;100692.20;1710606;84;20206;-55
2021/03/21 02:05:00;;;;;;;;;;;;;;;2.82;69.33;100689.30;1713650;83;20285;-55
2021/03/21 02:08:14;;;;;;;;;;;;;;;2.91;69.03;100679.11;1713681;84;20208;-55
2021/03/21 02:11:39;;;;;;;;;;;;;;;2.98;68.72;100687.95;1711050;84;20274;-55
2021/03/21 02:14:56;;;;;;;;;;;;;;;3.07;68.41;100676.92;1713495;83;20333;-54
2021/03/21 02:18:09;;;;;;;;;;;;;;;3.16;68.15;100680.72;1685715;85;20571;-55
2021/03/21 02:21:32;;;;;;;;;;;;;;;3.20;68.00;100682.22;1706299;84;20204;-54
2021/03/21 02:24:42;;;;;;;;;;;;;;;3.21;67.90;100675.81;1706143;84;20363;-55
2021/03/21 02:28:09;;;;;;;;;;;;;;;3.18;67.91;100676.93;1706144;84;20211;-54
2021/03/21 02:31:24;;;;;;;;;;;;;;;3.14;68.12;100675.95;1706184;84;20278;-54
2021/03/21 02:34:32;;;;;;;;;;;;;;;3.08;68.25;100673.22;1706021;84;20245;-54
2021/03/21 02:37:48;;;;;;;;;;;;;;;3.06;68.41;100684.64;1706235;84;20506;-54
2021/03/21 02:41:05;;;;;;;;;;;;;;;3.03;68.48;100678.13;1706450;84;20211;-54
2021/03/21 02:44:13;;;;;;;;;;;;;;;2.96;68.54;100669.66;1706545;84;20211;-54
2021/03/21 02:47:24;;;;;;;;;;;;;;;2.87;68.61;100668.17;1706611;84;20258;-54
2021/03/21 02:50:33;;;;;;;;;;;;;;;2.87;68.83;100669.53;1706633;84;20585;-55
2021/03/21 02:53:47;;;;;;;;;;;;;;;2.89;68.87;100662.13;1723594;80;20562;-55
2021/03/21 02:56:53;;;;;;;;;;;;;;;2.89;68.86;100660.30;1726766;83;20237;-55
2021/03/21 03:00:01;;;;;;;;;;;;;;;2.91;68.81;100662.88;1726800;83;20205;-54
2021/03/21 03:03:07;;;;;;;;;;;;;;;2.89;68.62;100663.00;1726733;83;20208;-55
2021/03/21 03:06:16;;;;;;;;;;;;;;;2.84;68.57;100664.33;1726866;83;20245;-55
2021/03/21 03:09:26;;;;;;;;;;;;;;;2.80;68.57;100663.73;1727008;82;20550;-55
2021/03/21 03:12:40;;;;;;;;;;;;;;;2.74;68.62;100668.24;1726737;83;20303;-54
2021/03/21 03:15:47;;;;;;;;;;;;;;;2.70;68.69;100669.48;1727820;82;20280;-55
2021/03/21 03:19:11;;;;;;;;;;;;;;;2.66;68.78;100670.67;1726993;82;20600;-54
2021/03/21 03:22:21;;;;;;;;;;;;;;;2.63;68.79;100665.52;1727249;82;20573;-55
2021/03/21 03:25:37;;;;;;;;;;;;;;;2.60;68.83;100670.32;1754586;82;20328;-55
2021/03/21 03:28:47;;;;;;;;;;;;;;;2.58;68.89;100674.49;1751897;82;20441;-54
2021/03/21 03:31:57;;;;;;;;;;;;;;;2.57;68.85;100674.09;1753841;82;20291;-55
2021/03/21 03:35:03;;;;;;;;;;;;;;;2.58;68.89;100670.44;1754519;82;20265;-55
2021/03/21 03:38:07;;;;;;;;;;;;;;;2.60;68.87;100674.37;1753939;82;20312;-55
2021/03/21 03:41:20;;;;;;;;;;;;;;;2.63;68.87;100680.89;1754350;81;20366;-54
2021/03/21 03:44:33;;;;;;;;;;;;;;;2.68;68.76;100677.34;1753806;82;20308;-54
2021/03/21 03:47:49;;;;;;;;;;;;;;;2.72;68.62;100677.47;1754502;82;20564;-54
2021/03/21 03:51:02;;;;;;;;;;;;;;;2.74;68.48;100672.81;1754235;81;20282;-54
2021/03/21 03:54:27;;;;;;;;;;;;;;;2.76;68.33;100674.87;1733313;81;20313;-54
2021/03/21 03:57:37;;;;;;;;;;;;;;;2.77;68.30;100673.92;1724484;83;20237;-54
2021/03/21 04:00:51;;;;;;;;;;;;;;;2.79;68.24;100671.97;1724230;83;20600;-54
2021/03/21 04:04:03;;;;;;;;;;;;;;;2.81;68.20;100672.69;1724424;83;20281;-56
2021/03/21 04:07:13;;;;;;;;;;;;;;;2.78;68.13;100678.33;1724506;83;20277;-54
2021/03/21 04:10:20;;;;;;;;;;;;;;;2.74;68.23;100674.16;1724580;82;20276;-54
2021/03/21 04:13:31;;;;;;;;;;;;;;;2.73;68.34;100679.17;1724548;82;20312;-55
2021/03/21 04:16:39;;;;;;;;;;;;;;;2.71;68.40;100677.11;1724548;83;20213;-55
2021/03/21 04:19:45;;;;;;;;;;;;;;;2.70;68.47;100680.77;1724485;83;20316;-55
2021/03/21 04:22:52;;;;;;;;;;;;;;;2.67;68.44;100679.18;1724586;83;20324;-55
2021/03/21 04:26:00;;;;;;;;;;;;;;;2.67;68.51;100685.06;1724407;83;20265;-55
2021/03/21 04:29:07;;;;;;;;;;;;;;;2.72;68.56;100685.09;1724392;83;20322;-55
2021/03/21 04:32:26;;;;;;;;;;;;;;;2.78;68.50;100675.16;1725111;82;20280;-57
2021/03/21 04:35:33;;;;;;;;;;;;;;;2.84;68.37;100680.07;1724513;83;20193;-56
2021/03/21 04:38:48;;;;;;;;;;;;;;;2.91;68.35;100676.40;1724689;82;20293;-57
2021/03/21 04:42:17;;;;;;;;;;;;;;;2.96;68.29;100679.12;1724532;83;20238;-56
2021/03/21 04:45:27;;;;;;;;;;;;;;;3.02;68.32;100679.12;1722834;82;20285;-56
2021/03/21 04:48:32;;;;;;;;;;;;;;;3.11;68.31;100678.38;1724940;82;20313;-56
2021/03/21 04:51:43;;;;;;;;;;;;;;;3.20;68.23;100673.62;1724422;83;20284;-56
2021/03/21 04:54:48;;;;;;;;;;;;;;;3.25;68.12;100680.84;1723208;81;20328;-56
2021/03/21 04:57:55;;;;;;;;;;;;;;;3.28;68.03;100671.16;1723907;83;20284;-53
2021/03/21 05:01:03;;;;;;;;;;;;;;;3.35;68.03;100669.67;1724505;83;20304;-55
2021/03/21 05:04:18;;;;;;;;;;;;;;;3.47;68.00;100682.72;1704681;83;20265;-55
2021/03/21 05:07:40;;;;;;;;;;;;;;;3.50;67.77;100670.28;1724506;83;20601;-54
2021/03/21 05:10:48;;;;;;;;;;;;;;;3.52;67.66;100665.11;1724530;83;20218;-56
2021/03/21 05:14:07;;;;;;;;;;;;;;;3.56;67.63;100667.95;1724569;82;20229;-56
2021/03/21 05:17:16;;;;;;;;;;;;;;;3.63;67.59;100677.27;1724537;83;20284;-57
2021/03/21 05:20:39;;;;;;;;;;;;;;;3.66;67.37;100676.18;1724512;83;20221;-56
2021/03/21 05:23:50;;;;;;;;;;;;;;;3.66;67.18;100691.06;1724417;83;20329;-54
2021/03/21 05:27:19;;;;;;;;;;;;;;;3.58;67.09;100687.64;1724369;83;20324;-56
2021/03/21 05:30:27;;;;;;;;;;;;;;;3.52;67.17;100684.56;1723302;83;20209;-56
2021/03/21 05:33:32;;;;;;;;;;;;;;;3.49;67.33;100684.30;1725942;82;20687;-55
2021/03/21 05:36:52;;;;;;;;;;;;;;;3.46;67.27;100680.97;1725770;83;20288;-56
2021/03/21 05:40:02;;;;;;;;;;;;;;;3.35;67.33;100683.20;1725737;83;20273;-56
2021/03/21 05:43:28;;;;;;;;;;;;;;;3.26;67.59;100684.42;1725486;82;20313;-55
2021/03/21 05:46:56;;;;;;;;;;;;;;;3.14;67.69;100684.06;1725851;83;20281;-56
2021/03/21 05:50:12;;;;;;;;;;;;;;;3.01;67.96;100688.22;1726014;83;20277;-55
2021/03/21 05:53:21;;;;;;;;;;;;;;;2.92;68.30;100684.87;1725927;82;20234;-55
2021/03/21 05:56:58;;;;;;;;;;;;;;;2.84;68.50;100677.37;1718518;80;20250;-54
2021/03/21 06:00:34;;;;;;;;;;;;;;;2.83;68.98;100680.19;1708538;83;20292;-55
2021/03/21 06:04:02;;;;;;;;;;;;;;;2.80;69.26;100676.38;1711065;84;20253;-55
2021/03/21 06:07:29;;;;;;;;;;;;;;;2.84;69.54;100677.84;1706357;83;20212;-56
2021/03/21 06:10:42;;;;;;;;;;;;;;;2.85;69.79;100677.73;1710723;84;20286;-55
2021/03/21 06:14:17;;;;;;;;;;;;;;;2.87;69.86;100674.94;1706643;83;20238;-56
2021/03/21 06:17:58;;;;;;;;;;;;;;;2.89;70.00;100675.66;1710651;84;20308;-55
2021/03/21 06:21:21;;;;;;;;;;;;;;;2.87;69.84;100679.83;1706556;83;20236;-55
2021/03/21 06:24:30;;;;;;;;;;;;;;;2.87;69.99;100674.94;1711136;84;20250;-54
2021/03/21 06:27:47;;;;;;;;;;;;;;;2.91;69.97;100669.64;1707594;82;20266;-55
2021/03/21 06:31:09;;;;;;;;;;;;;;;2.95;70.08;100677.87;1708831;83;20275;-55
2021/03/21 06:34:41;;;;;;;;;;;;;;;3.02;70.47;100679.99;1712333;82;20226;-55
2021/03/21 06:37:54;;;;;;;;;;;;;;;3.06;70.11;100682.80;1707698;83;20307;-55
2021/03/21 06:41:14;;;;;;;;;;;;;;;3.12;70.23;100679.25;1712363;84;20313;-55
2021/03/21 06:44:45;;;;;;;;;;;;;;;3.19;69.81;100693.52;1709077;83;20249;-55
2021/03/21 06:47:57;;;;;;;;;;;;;;;3.19;69.61;100689.97;1711964;82;20284;-54
2021/03/21 06:51:40;;;;;;;;;;;;;;;3.18;69.07;100678.28;1708262;83;20284;-55
2021/03/21 06:55:13;;;;;;;;;;;;;;;3.14;68.31;100675.44;1712574;84;20230;-55
2021/03/21 06:58:37;;;;;;;;;;;;;;;3.14;68.16;100672.73;1755556;80;20719;-55
2021/03/21 07:01:48;;;;;;;;;;;;;;;3.26;68.63;100670.90;1711808;84;20304;-55
2021/03/21 07:05:32;;;;;;;;;;;;;;;3.38;68.13;100670.77;1712260;84;20264;-55
2021/03/21 07:09:02;;;;;;;;;;;;;;;3.50;67.35;100665.75;1722988;81;20303;-55
2021/03/21 07:12:40;;;;;;;;;;;;;;;3.60;67.19;100657.22;1686439;84;20218;-55
2021/03/21 07:16:08;;;;;;;;;;;;;;;3.82;67.07;100648.22;1686701;85;20250;-54
2021/03/21 07:19:36;;;;;;;;;;;;;;;4.02;66.52;100643.36;1745669;81;20254;-55
2021/03/21 07:22:49;;;;;;;;;;;;;;;4.05;66.07;100646.67;1745045;81;20245;-54
2021/03/21 07:26:13;;;;;;;;;;;;;;;3.99;65.66;100640.42;1745347;82;20255;-54
2021/03/21 07:29:41;;;;;;;;;;;;;;;3.99;65.23;100644.48;1745283;81;20210;-54
2021/03/21 07:32:59;;;;;;;;;;;;;;;4.06;65.12;100637.55;1745245;81;20482;-55
2021/03/21 07:36:08;;;;;;;;;;;;;;;4.09;64.71;100635.94;1745482;82;20186;-54
2021/03/21 07:39:34;;;;;;;;;;;;;;;4.18;64.85;100636.54;1745334;81;20222;-54
2021/03/21 07:42:53;;;;;;;;;;;;;;;4.24;63.72;100633.30;1745387;81;20262;-55
2021/03/21 07:46:07;;;;;;;;;;;;;;;4.32;63.60;100643.48;1745602;82;20213;-53
2021/03/21 07:49:41;;;;;;;;;;;;;;;4.37;63.15;100627.70;1745483;81;20209;-55
2021/03/21 07:52:53;;;;;;;;;;;;;;;4.37;62.50;100629.92;1745457;81;20209;-55
2021/03/21 07:56:22;;;;;;;;;;;;;;;4.45;62.54;100611.64;1726082;83;20214;-55
2021/03/21 07:59:29;;;;;;;;;;;;;;;4.62;61.66;100619.18;1719099;82;20328;-55
2021/03/21 08:02:36;;;;;;;;;;;;;;;4.71;60.72;100622.44;1720766;82;20248;-56
2021/03/21 08:05:44;;;;;;;;;;;;;;;4.76;59.56;100609.87;1721061;83;20291;-54
2021/03/21 08:08:52;;;;;;;;;;;;;;;4.84;59.48;100610.90;1720247;82;20587;-54
2021/03/21 08:12:28;;;;;;;;;;;;;;;4.97;58.72;100612.91;1731695;81;20321;-55
2021/03/21 08:15:34;;;;;;;;;;;;;;;5.06;57.86;100609.89;1749194;82;20202;-55
2021/03/21 08:18:46;;;;;;;;;;;;;;;5.06;57.63;100603.11;1749131;82;20534;-55
2021/03/21 08:21:49;;;;;;;;;;;;;;;5.17;57.45;100608.44;1749103;82;20217;-55
2021/03/21 08:24:55;;;;;;;;;;;;;;;5.36;56.71;100601.73;1749274;82;20205;-55
2021/03/21 08:28:03;;;;;;;;;;;;;;;5.47;56.26;100595.68;1750383;80;20209;-54
2021/03/21 08:31:07;;;;;;;;;;;;;;;5.65;56.50;100604.02;1750520;82;20529;-55
2021/03/21 08:34:34;;;;;;;;;;;;;;;5.71;55.44;100585.80;1738676;81;20668;-53
2021/03/21 08:37:50;;;;;;;;;;;;;;;5.64;54.97;100590.09;1737883;81;20585;-53
2021/03/21 08:40:53;;;;;;;;;;;;;;;5.52;53.20;100587.98;1724556;82;20266;-54
2021/03/21 08:44:05;;;;;;;;;;;;;;;5.41;53.46;100584.02;1743057;81;20206;-54
2021/03/21 08:47:10;;;;;;;;;;;;;;;5.39;53.37;100580.58;1746622;82;20240;-55
2021/03/21 08:50:18;;;;;;;;;;;;;;;5.32;52.70;100585.34;1748898;82;20558;-54
2021/03/21 08:53:41;;;;;;;;;;;;;;;5.29;52.51;100580.20;1748875;82;20202;-54
2021/03/21 08:57:10;;;;;;;;;;;;;;;5.39;52.83;100575.16;1748437;82;20554;-54
2021/03/21 09:00:29;;;;;;;;;;;;;;;5.65;53.28;100573.66;1754687;78;20281;-54
2021/03/21 09:03:38;;;;;;;;;;;;;;;5.86;52.97;100570.38;1753788;82;20257;-55
2021/03/21 09:06:45;;;;;;;;;;;;;;;5.81;52.19;100578.54;1753923;81;20257;-53
2021/03/21 09:09:49;;;;;;;;;;;;;;;5.65;52.39;100567.36;1753383;82;20649;-54
2021/03/21 09:12:55;;;;;;;;;;;;;;;5.51;51.39;100575.91;1753155;80;20552;-54
2021/03/21 09:16:08;;;;;;;;;;;;;;;5.36;50.84;100573.23;1746204;82;20325;-54
2021/03/21 09:19:25;;;;;;;;;;;;;;;5.17;50.37;100566.38;1754224;80;20245;-54
2021/03/21 09:22:48;;;;;;;;;;;;;;;5.06;50.81;100561.89;1751277;81;20293;-55
2021/03/21 09:25:57;;;;;;;;;;;;;;;5.04;50.58;100558.97;1757214;80;20217;-54
2021/03/21 09:29:16;;;;;;;;;;;;;;;5.03;50.73;100556.74;1747745;81;20217;-53
2021/03/21 09:32:29;;;;;;;;;;;;;;;5.11;51.06;100539.29;1747736;80;20562;-54
2021/03/21 09:36:05;;;;;;;;;;;;;;;5.11;49.61;100535.70;1740977;82;20616;-55
2021/03/21 09:39:13;;;;;;;;;;;;;;;5.03;49.34;100542.31;1755493;80;20625;-54
2021/03/21 09:42:18;;;;;;;;;;;;;;;5.07;48.50;100534.28;1754250;80;20289;-55
2021/03/21 09:45:22;;;;;;;;;;;;;;;5.14;48.71;100525.44;1754592;82;20280;-54
2021/03/21 09:48:48;;;;;;;;;;;;;;;5.33;48.35;100532.28;1725994;82;20286;-54
2021/03/21 09:52:20;;;;;;;;;;;;;;;5.42;47.99;100529.25;1734759;82;20216;-54
2021/03/21 09:55:50;;;;;;;;;;;;;;;5.45;48.05;100523.53;1754238;82;20285;-54
2021/03/21 09:59:06;;;;;;;;;;;;;;;5.48;48.04;100523.25;1751560;81;20272;-54
2021/03/21 10:02:23;;;;;;;;;;;;;;;5.63;47.75;100515.04;1754630;82;20313;-53
2021/03/21 10:05:52;;;;;;;;;;;;;;;5.67;47.40;100521.92;1758558;80;20321;-53
2021/03/21 10:09:11;;;;;;;;;;;;;;;5.54;47.38;100504.55;1753649;82;20297;-54
2021/03/21 10:12:17;;;;;;;;;;;;;;;5.49;46.90;100509.53;1753803;82;20530;-54
2021/03/21 10:15:26;;;;;;;;;;;;;;;5.54;47.13;100509.98;1740673;81;20550;-53
2021/03/21 10:18:57;;;;;;;;;;;;;;;5.58;47.49;100509.20;1697440;84;20841;-53
2021/03/21 10:22:00;;;;;;;;;;;;;;;5.63;47.71;100498.25;1773565;80;20250;-53
2021/03/21 10:25:05;;;;;;;;;;;;;;;5.91;48.96;100493.88;1751002;82;20216;-53
2021/03/21 10:28:14;;;;;;;;;;;;;;;6.17;47.82;100475.13;1753037;81;20287;-52
2021/03/21 10:31:40;;;;;;;;;;;;;;;6.37;47.09;100482.22;1751503;82;20261;-51
2021/03/21 10:34:48;;;;;;;;;;;;;;;6.52;46.53;100474.80;1752959;82;20347;-52
2021/03/21 10:38:08;;;;;;;;;;;;;;;6.59;45.48;100466.42;1753775;82;20225;-53
2021/03/21 10:41:13;;;;;;;;;;;;;;;6.63;45.12;100459.66;1753665;82;20859;-53
2021/03/21 10:44:16;;;;;;;;;;;;;;;6.74;45.25;100456.75;1753732;82;20281;-53
2021/03/21 10:47:33;;;;;;;;;;;;;;;6.81;45.14;100452.94;1755590;80;20320;-53
2021/03/21 10:50:43;;;;;;;;;;;;;;;6.77;45.83;100455.09;1754276;82;20213;-53
2021/03/21 10:53:57;;;;;;;;;;;;;;;6.65;44.51;100460.37;1755269;80;20348;-53
2021/03/21 10:57:34;;;;;;;;;;;;;;;6.52;44.09;100458.48;1755708;82;20261;-52
2021/03/21 11:00:40;;;;;;;;;;;;;;;6.65;43.97;100446.78;1722598;80;20230;-51
2021/03/21 11:03:45;;;;;;;;;;;;;;;6.96;43.12;100459.08;1776746;79;20275;-52
2021/03/21 11:07:05;;;;;;;;;;;;;;;7.13;41.36;100451.98;1776803;80;20278;-53
2021/03/21 11:10:12;;;;;;;;;;;;;;;7.18;41.65;100435.53;1752776;80;20625;-55
2021/03/21 11:13:18;;;;;;;;;;;;;;;7.10;42.26;100454.48;1753353;82;20225;-53
2021/03/21 11:16:26;;;;;;;;;;;;;;;6.92;42.46;100441.85;1753727;82;20201;-53
2021/03/21 11:19:33;;;;;;;;;;;;;;;6.74;43.24;100440.95;1754079;82;20284;-54
2021/03/21 11:22:43;;;;;;;;;;;;;;;6.59;43.52;100439.72;1754239;81;20288;-54
2021/03/21 11:25:47;;;;;;;;;;;;;;;6.43;44.10;100434.91;1754143;82;20308;-52
2021/03/21 11:28:52;;;;;;;;;;;;;;;6.37;43.84;100422.41;1753848;82;20281;-53
2021/03/21 11:32:03;;;;;;;;;;;;;;;6.37;44.09;100419.70;1754464;82;20217;-53
2021/03/21 11:35:14;;;;;;;;;;;;;;;6.40;44.65;100428.42;1754534;82;20582;-53
2021/03/21 11:38:37;;;;;;;;;;;;;;;6.38;44.13;100415.95;1754356;81;20312;-53
2021/03/21 11:41:43;;;;;;;;;;;;;;;6.26;43.44;100415.30;1754033;82;20204;-53
2021/03/21 11:44:50;;;;;;;;;;;;;;;6.11;43.67;100405.89;1751899;82;20300;-53
2021/03/21 11:47:57;;;;;;;;;;;;;;;6.25;44.29;100401.86;1762337;79;20227;-53
2021/03/21 11:51:02;;;;;;;;;;;;;;;6.66;43.80;100400.88;1757457;81;20276;-54
2021/03/21 11:54:07;;;;;;;;;;;;;;;6.92;41.93;100395.59;1753055;82;20221;-54
2021/03/21 11:57:18;;;;;;;;;;;;;;;7.22;42.44;100403.41;1754292;82;20636;-54
2021/03/21 12:00:30;;;;;;;;;;;;;;;7.39;41.89;100397.12;1756122;82;20281;-54
2021/03/21 12:03:36;;;;;;;;;;;;;;;7.38;41.37;100396.29;1715075;82;20210;-54
2021/03/21 12:06:45;;;;;;;;;;;;;;;7.25;41.85;100386.27;1705690;82;20209;-55
2021/03/21 12:09:57;;;;;;;;;;;;;;;7.08;42.96;100380.32;1701312;83;20212;-54
2021/03/21 12:13:00;;;;;;;;;;;;;;;7.16;43.18;100384.48;1702396;83;20656;-52
2021/03/21 12:16:06;;;;;;;;;;;;;;;7.15;43.54;100371.88;1701809;83;20292;-54
2021/03/21 12:19:14;;;;;;;;;;;;;;;7.08;43.13;100359.04;1702628;83;20212;-52
2021/03/21 12:22:47;;;;;;;;;;;;;;;7.08;42.51;100354.46;1701376;83;20260;-54
2021/03/21 12:25:52;;;;;;;;;;;;;;;7.05;42.22;100360.22;1702187;83;20262;-54
2021/03/21 12:28:58;;;;;;;;;;;;;;;6.98;43.07;100355.02;1701523;83;20468;-52
2021/03/21 12:32:06;;;;;;;;;;;;;;;7.25;42.93;100345.94;1701815;83;20295;-53
2021/03/21 12:35:15;;;;;;;;;;;;;;;7.63;42.20;100342.37;1702838;83;20280;-53
2021/03/21 12:38:39;;;;;;;;;;;;;;;7.60;41.54;100339.97;1702724;83;20276;-53
2021/03/21 12:41:52;;;;;;;;;;;;;;;7.30;41.25;100339.03;1702528;83;20208;-54
2021/03/21 12:45:27;;;;;;;;;;;;;;;7.17;42.13;100335.83;1702366;83;20333;-53
2021/03/21 12:48:32;;;;;;;;;;;;;;;7.44;42.48;100331.66;1704149;83;20210;-53
2021/03/21 12:51:39;;;;;;;;;;;;;;;7.70;41.33;100333.56;1708179;82;20250;-53
2021/03/21 12:54:43;;;;;;;;;;;;;;;7.75;40.78;100324.41;1709137;82;20214;-52
2021/03/21 12:57:47;;;;;;;;;;;;;;;7.89;39.91;100322.46;1709226;82;20250;-53
2021/03/21 13:00:52;;;;;;;;;;;;;;;8.03;39.46;100330.05;1709006;82;20214;-54
2021/03/21 13:03:56;;;;;;;;;;;;;;;8.13;39.26;100308.98;1685311;82;20216;-54
2021/03/21 13:07:02;;;;;;;;;;;;;;;8.36;39.42;100311.51;1673187;85;20203;-53
2021/03/21 13:10:06;;;;;;;;;;;;;;;8.51;39.46;100320.80;1673854;86;20219;-54
2021/03/21 13:13:13;;;;;;;;;;;;;;;8.30;39.42;100308.08;1673636;84;20218;-54
2021/03/21 13:16:18;;;;;;;;;;;;;;;8.07;39.74;100297.38;1684431;85;20638;-53
2021/03/21 13:19:27;;;;;;;;;;;;;;;8.00;39.67;100286.26;1685214;84;20290;-53
2021/03/21 13:22:31;;;;;;;;;;;;;;;7.90;39.89;100282.78;1684773;84;20281;-54
2021/03/21 13:25:38;;;;;;;;;;;;;;;7.85;39.83;100273.40;1684416;85;20321;-54
2021/03/21 13:28:41;;;;;;;;;;;;;;;7.97;39.83;100275.68;1684218;84;20497;-54
2021/03/21 13:31:44;;;;;;;;;;;;;;;8.08;40.02;100264.99;1674697;84;20224;-54
2021/03/21 13:34:50;;;;;;;;;;;;;;;8.01;40.00;100263.95;1660059;84;20257;-54
2021/03/21 13:37:56;;;;;;;;;;;;;;;7.99;40.19;100266.81;1659482;86;20269;-54
2021/03/21 13:41:00;;;;;;;;;;;;;;;8.05;40.20;100259.87;1674131;86;20538;-54
2021/03/21 13:44:04;;;;;;;;;;;;;;;8.05;40.40;100265.33;1674329;86;20214;-54
2021/03/21 13:47:08;;;;;;;;;;;;;;;8.10;39.67;100262.47;1674377;86;20211;-55
2021/03/21 13:50:17;;;;;;;;;;;;;;;8.28;40.02;100259.16;1674395;86;20207;-55
2021/03/21 13:53:27;;;;;;;;;;;;;;;8.32;38.61;100258.33;1652863;86;20230;-55
2021/03/21 13:56:30;;;;;;;;;;;;;;;8.20;38.91;100259.09;1674697;85;20203;-54
2021/03/21 13:59:35;;;;;;;;;;;;;;;8.17;38.87;100255.83;1674583;86;20310;-56
2021/03/21 14:02:39;;;;;;;;;;;;;;;8.12;38.94;100248.14;1674599;86;20210;-54
2021/03/21 14:05:46;;;;;;;;;;;;;;;8.08;38.87;100245.91;1678633;84;20259;-53
2021/03/21 14:08:55;;;;;;;;;;;;;;;8.02;39.47;100240.62;1687536;84;20228;-54
2021/03/21 14:12:02;;;;;;;;;;;;;;;8.08;39.70;100243.19;1686661;84;20270;-53
2021/03/21 14:15:05;;;;;;;;;;;;;;;7.92;39.60;100237.16;1695512;83;20228;-54
2021/03/21 14:18:10;;;;;;;;;;;;;;;7.70;40.22;100232.76;1678750;84;20563;-53
2021/03/21 14:21:16;;;;;;;;;;;;;;;7.69;41.04;100237.88;1692932;85;20221;-54
2021/03/21 14:24:20;;;;;;;;;;;;;;;7.75;41.21;100227.19;1738813;81;20261;-54
2021/03/21 14:27:24;;;;;;;;;;;;;;;7.80;41.49;100227.53;1707244;83;20572;-54
2021/03/21 14:30:29;;;;;;;;;;;;;;;7.88;41.17;100220.76;1717012;83;20219;-54
2021/03/21 14:33:37;;;;;;;;;;;;;;;7.91;39.96;100215.52;1716922;83;20648;-55
2021/03/21 14:36:43;;;;;;;;;;;;;;;7.76;39.71;100212.53;1717833;83;20283;-55
2021/03/21 14:39:47;;;;;;;;;;;;;;;7.68;39.85;100207.53;1718100;83;20212;-54
2021/03/21 14:42:52;;;;;;;;;;;;;;;7.60;40.47;100205.63;1718132;83;20627;-54
2021/03/21 14:45:58;;;;;;;;;;;;;;;7.48;40.70;100206.40;1718175;83;20283;-53
2021/03/21 14:49:03;;;;;;;;;;;;;;;7.24;41.08;100191.28;1717953;83;20260;-54
2021/03/21 14:52:07;;;;;;;;;;;;;;;7.01;41.30;100198.23;1718074;83;20370;-53
2021/03/21 14:55:13;;;;;;;;;;;;;;;6.97;41.24;100202.30;1717816;83;20303;-53
2021/03/21 14:58:28;;;;;;;;;;;;;;;7.01;41.57;100192.79;1717782;83;20288;-53
2021/03/21 15:01:33;;;;;;;;;;;;;;;7.38;41.60;100187.11;1718058;83;20453;-54
2021/03/21 15:04:39;;;;;;;;;;;;;;;7.65;40.94;100186.94;1719285;80;20329;-54
2021/03/21 15:07:45;;;;;;;;;;;;;;;7.48;40.92;100184.61;1708651;84;20234;-53
2021/03/21 15:10:51;;;;;;;;;;;;;;;7.16;41.03;100177.61;1708392;84;20551;-54
2021/03/21 15:13:55;;;;;;;;;;;;;;;6.93;41.50;100176.40;1707598;84;20210;-53
2021/03/21 15:16:59;;;;;;;;;;;;;;;6.94;41.73;100179.48;1707308;84;20666;-53
2021/03/21 15:20:05;;;;;;;;;;;;;;;6.98;41.62;100172.70;1680548;85;20204;-54
2021/03/21 15:23:09;;;;;;;;;;;;;;;6.84;41.88;100172.41;1703636;82;20254;-53
2021/03/21 15:26:16;;;;;;;;;;;;;;;6.67;42.46;100172.78;1710364;83;20487;-53
2021/03/21 15:29:22;;;;;;;;;;;;;;;6.57;42.89;100172.00;1701595;83;20600;-53
2021/03/21 15:32:26;;;;;;;;;;;;;;;6.50;42.78;100165.98;1701574;83;20244;-53
2021/03/21 15:35:30;;;;;;;;;;;;;;;6.35;42.76;100167.03;1702101;84;20223;-53
2021/03/21 15:38:34;;;;;;;;;;;;;;;6.17;43.27;100167.50;1701960;83;20557;-53
2021/03/21 15:41:39;;;;;;;;;;;;;;;5.99;43.55;100172.06;1702865;84;20254;-54
2021/03/21 15:44:43;;;;;;;;;;;;;;;5.81;43.94;100176.06;1703367;84;20225;-53
2021/03/21 15:47:46;;;;;;;;;;;;;;;5.68;44.26;100174.67;1703247;83;20275;-53
2021/03/21 15:50:51;;;;;;;;;;;;;;;5.53;44.75;100170.76;1704335;83;20649;-54
2021/03/21 15:53:56;;;;;;;;;;;;;;;5.40;45.09;100174.30;1708441;84;20218;-53
2021/03/21 15:57:02;;;;;;;;;;;;;;;5.27;45.35;100168.34;1710232;83;20281;-53
2021/03/21 16:00:06;;;;;;;;;;;;;;;5.17;45.74;100165.65;1711517;83;20210;-56
2021/03/21 16:03:11;;;;;;;;;;;;;;;5.07;46.21;100172.11;1681823;84;20600;-53
2021/03/21 16:06:18;;;;;;;;;;;;;;;4.98;46.65;100175.19;1727820;80;20649;-54
2021/03/21 16:09:24;;;;;;;;;;;;;;;4.90;47.13;100169.63;1736916;82;20201;-54
2021/03/21 16:12:29;;;;;;;;;;;;;;;4.86;47.61;100174.14;1724279;82;20203;-53
2021/03/21 16:15:32;;;;;;;;;;;;;;;4.79;48.07;100171.14;1723803;83;20222;-54
2021/03/21 16:18:37;;;;;;;;;;;;;;;4.73;48.47;100170.86;1723941;82;20202;-54
2021/03/21 16:21:44;;;;;;;;;;;;;;;4.67;48.85;100165.53;1720911;83;20229;-54
2021/03/21 16:24:50;;;;;;;;;;;;;;;4.63;49.14;100175.80;1698228;82;20212;-54
2021/03/21 16:27:52;;;;;;;;;;;;;;;4.59;49.36;100173.53;1689389;84;20263;-54
2021/03/21 16:30:58;;;;;;;;;;;;;;;4.56;49.55;100176.04;1703914;82;20318;-54
2021/03/21 16:34:03;;;;;;;;;;;;;;;4.53;49.75;100177.65;1715430;82;20378;-54
2021/03/21 16:37:08;;;;;;;;;;;;;;;4.51;49.99;100174.73;1715169;83;20217;-54